Time;durP1;ratioP1;P1;durP2;ratioP2;P2;SDS_P1;SDS_P2;PMS_P1;PMS_P2;Temp;Humidity;BMP_temperature;BMP_pressure;BME280_temperature;BME280_humidity;BME280_pressure;Samples;Min_cycle;Max_cycle;Signal;HPM_P1;HPM_P2
2021/10/22 00:00:45;;;;;;;3.33;2.83;;;7.40;93.70;;;6.19;97.79;97781.44;5057433;28;20468;-77
2021/10/22 00:03:14;;;;;;;4.03;3.47;;;7.50;94.70;;;6.15;97.16;97782.84;5055942;28;20532;-76
2021/10/22 00:05:41;;;;;;;4.93;3.40;;;7.50;94.10;;;6.09;97.58;97778.22;5043208;28;20450;-76
2021/10/22 00:08:08;;;;;;;8.40;3.43;;;7.50;94.00;;;6.11;96.88;97788.78;5035277;28;20501;-77
2021/10/22 00:10:35;;;;;;;4.93;3.40;;;7.40;93.40;;;5.99;96.63;97780.38;5035475;28;20462;-75
2021/10/22 00:13:04;;;;;;;4.20;3.10;;;7.40;93.30;;;6.03;97.05;97782.50;5035567;28;20457;-76
2021/10/22 00:15:30;;;;;;;5.23;3.47;;;7.40;93.30;;;6.23;96.33;97793.44;5045377;28;20510;-75
2021/10/22 00:17:57;;;;;;;6.93;3.07;;;7.50;93.40;;;6.06;96.14;97802.78;5053830;28;20497;-76
2021/10/22 00:20:26;;;;;;;7.87;3.60;;;7.40;92.50;;;6.07;95.91;97804.44;5041597;28;20478;-76
2021/10/22 00:22:53;;;;;;;4.33;3.57;;;7.40;92.70;;;5.92;95.48;97802.59;5039208;28;20481;-77
2021/10/22 00:25:20;;;;;;;3.70;3.27;;;7.30;92.40;;;6.02;96.22;97817.59;5053745;28;20473;-79
2021/10/22 00:27:50;;;;;;;4.63;3.60;;;7.40;92.90;;;6.01;96.17;97813.22;5037157;28;20458;-77
2021/10/22 00:30:17;;;;;;;5.03;3.27;;;7.30;92.70;;;5.91;95.98;97806.31;5047616;28;20455;-77
2021/10/22 00:32:44;;;;;;;4.90;3.00;;;7.30;92.30;;;5.96;94.89;97814.59;5042893;28;20493;-77
2021/10/22 00:35:11;;;;;;;7.67;3.70;;;7.30;91.80;;;5.73;94.88;97787.97;5055815;28;20448;-78
2021/10/22 00:37:40;;;;;;;4.00;3.60;;;7.30;92.00;;;5.87;95.09;97826.47;5051951;28;20462;-78
2021/10/22 00:40:10;;;;;;;4.60;3.13;;;7.30;92.00;;;5.73;95.25;97825.50;5041842;28;20996;-78
2021/10/22 00:42:37;;;;;;;5.10;3.70;;;7.20;92.00;;;5.71;94.97;97832.91;5018443;28;20451;-77
2021/10/22 00:45:08;;;;;;;4.10;3.40;;;7.10;91.30;;;5.65;94.85;97839.03;5051101;28;20458;-77
2021/10/22 00:47:36;;;;;;;4.17;2.83;;;7.00;91.60;;;5.58;95.04;97843.44;5033294;28;20496;-77
2021/10/22 00:50:04;;;;;;;6.33;3.60;;;7.00;91.80;;;5.56;96.15;97846.34;5014321;28;20463;-77
2021/10/22 00:52:32;;;;;;;5.23;3.47;;;6.90;92.20;;;5.44;96.21;97850.50;5018803;28;20481;-77
2021/10/22 00:55:00;;;;;;;9.87;3.77;;;6.80;92.30;;;5.44;95.58;97847.84;5034018;28;20451;-76
2021/10/22 00:57:28;;;;;;;5.43;3.73;;;6.80;92.70;;;5.28;97.01;97855.06;5032297;28;20466;-76
2021/10/22 00:59:55;;;;;;;7.27;3.93;;;6.70;92.90;;;5.27;96.33;97848.03;5033481;28;20522;-77
2021/10/22 01:02:22;;;;;;;4.97;3.53;;;6.60;92.80;;;5.25;95.89;97844.72;5030846;28;20455;-77
2021/10/22 01:04:49;;;;;;;5.53;3.37;;;6.60;92.60;;;5.14;96.47;97843.31;5016472;28;20448;-77
2021/10/22 01:07:17;;;;;;;8.50;4.40;;;6.60;92.60;;;5.02;95.86;97842.94;5055413;28;20900;-77
2021/10/22 01:09:46;;;;;;;7.27;3.30;;;6.50;92.30;;;4.93;96.07;97841.38;5041009;28;20542;-76
2021/10/22 01:12:15;;;;;;;6.60;3.70;;;6.40;92.60;;;4.95;96.76;97844.69;5032497;28;20469;-77
2021/10/22 01:14:43;;;;;;;6.30;3.33;;;6.30;93.00;;;4.76;97.08;97840.72;5031960;28;20792;-77
2021/10/22 01:17:31;;;;;;;8.20;3.70;;;6.30;93.20;;;4.66;97.09;97849.00;5035046;28;20501;-77
2021/10/22 01:20:02;;;;;;;6.33;3.40;;;6.20;93.00;;;4.68;96.74;97855.00;5031377;28;20450;-77
2021/10/22 01:22:30;;;;;;;8.00;4.23;;;6.10;93.40;;;4.44;98.38;97840.81;5032019;28;21015;-76
2021/10/22 01:24:57;;;;;;;8.70;3.70;;;6.00;94.10;;;4.59;97.74;97867.63;5034015;28;20485;-76
2021/10/22 01:27:24;;;;;;;4.13;3.70;;;6.00;94.40;;;4.50;98.69;97858.84;5048256;28;20446;-76
2021/10/22 01:29:52;;;;;;;8.83;3.80;;;5.90;94.50;;;4.46;98.81;97862.06;5053631;28;20941;-77
2021/10/22 01:32:19;;;;;;;4.70;3.13;;;5.80;95.00;;;4.49;98.96;97854.50;5052916;28;20445;-77
2021/10/22 01:34:46;;;;;;;6.67;3.53;;;5.80;95.50;;;4.39;98.90;97849.38;5052893;28;20446;-77
2021/10/22 01:37:13;;;;;;;8.90;4.67;;;5.80;96.30;;;4.40;99.32;97858.25;5037316;28;20563;-78
2021/10/22 01:39:41;;;;;;;5.07;3.70;;;5.80;96.40;;;4.32;100.00;97851.13;5054424;28;20803;-77
2021/10/22 01:42:08;;;;;;;9.70;3.87;;;5.80;97.00;;;4.34;99.64;97859.78;5042803;28;20542;-77
2021/10/22 01:44:35;;;;;;;5.77;3.53;;;5.70;96.90;;;4.23;100.00;97861.06;5032719;28;20435;-77
2021/10/22 01:47:02;;;;;;;7.33;3.73;;;5.70;97.90;;;4.21;100.00;97864.91;5034835;28;20537;-77
2021/10/22 01:49:30;;;;;;;7.13;3.77;;;5.70;98.20;;;4.29;100.00;97872.03;5038512;28;20470;-76
2021/10/22 01:51:57;;;;;;;8.10;4.80;;;5.60;99.80;;;4.19;100.00;97877.63;5053644;28;20576;-76
2021/10/22 01:54:24;;;;;;;6.50;3.90;;;5.60;98.30;;;4.11;100.00;97886.53;5044011;28;20541;-75
2021/10/22 01:56:52;;;;;;;10.20;4.40;;;5.60;99.50;;;4.04;100.00;97888.25;5040444;28;21051;-75
2021/10/22 01:59:19;;;;;;;6.93;4.23;;;5.50;99.90;;;3.97;100.00;97886.28;5033839;28;20504;-76
2021/10/22 02:01:46;;;;;;;6.83;4.10;;;5.40;99.90;;;3.97;100.00;97891.63;5032440;28;20461;-76
2021/10/22 02:04:13;;;;;;;6.50;4.00;;;5.30;99.90;;;4.06;100.00;97878.22;5033836;28;20534;-77
2021/10/22 02:06:40;;;;;;;7.50;4.10;;;5.40;99.90;;;4.19;100.00;97878.47;5033575;28;20450;-77
2021/10/22 02:09:07;;;;;;;9.20;5.07;;;5.40;99.90;;;4.01;100.00;97853.84;5032964;28;20450;-76
2021/10/22 02:11:34;;;;;;;9.63;5.37;;;5.50;99.90;;;4.34;100.00;97891.06;5033735;28;20475;-76
2021/10/22 02:14:03;;;;;;;7.37;4.10;;;5.60;99.90;;;4.53;100.00;97889.72;5034447;28;20477;-77
2021/10/22 02:16:30;;;;;;;13.60;4.30;;;5.80;99.90;;;4.63;100.00;97884.16;5034637;28;20522;-77
2021/10/22 02:18:57;;;;;;;12.33;4.03;;;6.00;99.90;;;4.75;100.00;97887.22;5033241;28;20984;-77
2021/10/22 02:21:24;;;;;;;4.70;3.40;;;6.00;99.10;;;4.78;100.00;97882.34;5035058;28;20451;-77
2021/10/22 02:23:52;;;;;;;8.77;3.97;;;6.10;99.00;;;4.71;100.00;97881.41;5032620;28;20455;-76
2021/10/22 02:26:19;;;;;;;9.30;4.73;;;6.10;97.50;;;4.80;99.82;97884.81;5034307;28;20458;-76
2021/10/22 02:28:46;;;;;;;4.03;3.60;;;6.20;96.80;;;4.66;99.88;97870.41;5032840;28;20478;-76
2021/10/22 02:31:15;;;;;;;5.37;3.50;;;6.20;95.90;;;4.95;98.88;97898.25;5033500;28;20462;-77
2021/10/22 02:33:42;;;;;;;8.63;4.30;;;6.30;96.40;;;4.94;98.17;97896.59;5034221;28;20451;-76
2021/10/22 02:36:09;;;;;;;7.20;3.87;;;6.30;94.90;;;4.90;99.11;97906.81;5034226;28;20443;-77
2021/10/22 02:38:38;;;;;;;5.90;3.03;;;6.30;94.80;;;4.98;98.14;97895.22;5033903;28;20470;-77
2021/10/22 02:41:05;;;;;;;7.67;3.20;;;6.30;94.40;;;4.79;97.58;97878.66;5040573;28;20848;-77
2021/10/22 02:43:32;;;;;;;4.90;3.40;;;6.20;93.60;;;4.48;98.04;97857.34;5039527;28;20553;-77
2021/10/22 02:45:59;;;;;;;4.30;3.40;;;6.10;93.90;;;4.51;98.21;97884.59;5039892;28;20923;-77
2021/10/22 02:48:27;;;;;;;6.93;4.40;;;6.00;94.00;;;4.37;98.17;97896.06;5037913;28;20549;-77
2021/10/22 02:50:54;;;;;;;6.23;3.90;;;5.90;93.90;;;4.44;98.49;97902.34;5035528;28;20614;-77
2021/10/22 02:53:21;;;;;;;6.30;3.63;;;5.80;94.70;;;4.29;99.12;97899.63;5036154;28;21021;-77
2021/10/22 02:55:48;;;;;;;9.37;6.10;;;5.70;94.60;;;4.25;99.13;97904.50;5037038;28;20474;-77
2021/10/22 02:58:16;;;;;;;5.90;3.60;;;5.70;94.80;;;4.09;99.21;97894.75;5036468;28;20476;-77
2021/10/22 03:00:43;;;;;;;8.83;4.43;;;5.50;95.10;;;4.05;99.79;97897.94;5037646;28;20556;-77
2021/10/22 03:03:10;;;;;;;4.90;3.67;;;5.50;96.10;;;3.96;100.00;97899.84;5036600;28;20447;-77
2021/10/22 03:05:39;;;;;;;9.33;4.27;;;5.40;96.70;;;3.76;100.00;97883.41;5035920;28;20546;-78
2021/10/22 03:08:06;;;;;;;12.83;5.47;;;5.30;97.50;;;3.87;100.00;97906.22;5036107;28;20472;-77
2021/10/22 03:10:34;;;;;;;8.17;4.67;;;5.30;98.20;;;3.83;100.00;97905.75;5037682;28;20461;-78
2021/10/22 03:13:02;;;;;;;8.93;4.30;;;5.20;97.50;;;3.46;100.00;97873.34;5037717;28;20492;-78
2021/10/22 03:15:29;;;;;;;7.27;4.10;;;5.10;97.80;;;3.73;100.00;97916.66;5038448;28;20789;-78
2021/10/22 03:17:57;;;;;;;10.00;4.43;;;5.10;99.90;;;3.72;100.00;97920.31;5038839;28;20467;-78
2021/10/22 03:20:24;;;;;;;8.30;4.43;;;5.00;99.60;;;3.63;100.00;97927.53;5035514;28;20545;-77
2021/10/22 03:22:52;;;;;;;11.70;4.87;;;5.00;99.60;;;3.71;100.00;97917.81;5037550;28;20534;-77
2021/10/22 03:25:19;;;;;;;9.37;5.10;;;5.10;99.70;;;3.64;100.00;97912.34;5036935;28;20871;-77
2021/10/22 03:27:48;;;;;;;9.03;4.07;;;5.00;99.90;;;3.63;100.00;97922.19;5035697;28;20549;-77
2021/10/22 03:30:15;;;;;;;6.40;4.03;;;5.00;97.90;;;3.59;100.00;97934.25;5034092;28;20454;-77
2021/10/22 03:32:42;;;;;;;8.33;4.53;;;5.00;98.00;;;3.54;100.00;97937.44;5052549;28;20497;-77
2021/10/22 03:35:10;;;;;;;6.40;4.27;;;4.90;98.00;;;3.54;100.00;97936.59;5034244;28;20946;-77
2021/10/22 03:37:38;;;;;;;9.03;4.73;;;4.90;98.60;;;3.56;100.00;97929.22;5035287;28;20502;-77
2021/10/22 03:40:08;;;;;;;11.60;4.87;;;4.90;99.90;;;3.83;100.00;97924.44;5039981;28;20443;-78
2021/10/22 03:42:35;;;;;;;6.63;4.70;;;5.10;99.90;;;3.96;100.00;97932.75;5040772;28;20452;-78
2021/10/22 03:45:03;;;;;;;12.63;6.43;;;5.20;99.90;;;4.12;100.00;97936.34;5038106;28;20450;-78
2021/10/22 03:47:30;;;;;;;9.93;5.70;;;5.40;99.90;;;4.05;100.00;97911.31;5038114;28;20772;-77
2021/10/22 03:49:57;;;;;;;6.90;3.70;;;5.50;99.90;;;4.18;100.00;97919.59;5035616;28;20955;-77
2021/10/22 03:52:25;;;;;;;10.97;4.83;;;5.60;99.10;;;4.30;100.00;97933.38;5034898;28;20880;-77
2021/10/22 03:54:53;;;;;;;7.70;4.80;;;5.60;98.80;;;4.29;100.00;97937.06;5034537;28;20450;-77
2021/10/22 03:57:21;;;;;;;9.50;4.27;;;5.60;99.10;;;4.33;100.00;97938.38;5035283;28;20568;-76
2021/10/22 03:59:48;;;;;;;6.57;4.40;;;5.60;99.30;;;4.42;99.90;97936.47;5035581;28;20472;-76
2021/10/22 04:02:15;;;;;;;7.20;4.33;;;5.70;98.30;;;4.29;100.00;97952.28;5034047;28;20470;-76
2021/10/22 04:04:43;;;;;;;8.07;3.90;;;5.70;97.10;;;4.35;100.00;97936.34;5034277;28;20482;-77
2021/10/22 04:07:11;;;;;;;5.87;3.73;;;5.70;98.00;;;4.38;98.33;97940.53;5035311;28;20450;-76
2021/10/22 04:09:38;;;;;;;11.20;4.17;;;5.70;95.30;;;4.20;99.02;97943.47;5033645;28;20509;-77
2021/10/22 04:12:05;;;;;;;5.20;3.60;;;5.70;95.50;;;3.82;99.95;97890.72;5032538;28;20458;-76
2021/10/22 04:14:34;;;;;;;7.40;4.20;;;5.60;96.40;;;4.33;100.00;97954.44;5035163;28;20490;-75
2021/10/22 04:17:01;;;;;;;7.70;4.30;;;5.60;97.30;;;4.39;99.41;97952.88;5032456;28;20454;-76
2021/10/22 04:19:28;;;;;;;10.87;4.80;;;5.70;97.00;;;4.37;99.68;97950.38;5035175;28;20481;-76
2021/10/22 04:21:55;;;;;;;8.33;4.87;;;5.70;96.70;;;4.38;98.72;97941.34;5033332;28;20479;-76
2021/10/22 04:24:24;;;;;;;7.87;4.20;;;5.80;94.80;;;4.45;98.68;97960.19;5033675;28;21024;-76
2021/10/22 04:26:51;;;;;;;8.67;4.47;;;5.80;94.90;;;4.56;98.17;97960.81;5035749;28;20501;-75
2021/10/22 04:29:18;;;;;;;6.47;4.03;;;5.90;94.00;;;4.43;97.78;97964.06;5035257;28;20438;-77
2021/10/22 04:31:47;;;;;;;8.30;4.60;;;5.80;94.00;;;4.42;97.69;97960.56;5033933;28;20529;-76
2021/10/22 04:34:14;;;;;;;8.97;5.00;;;5.80;93.80;;;4.42;96.95;97960.56;5035057;28;20513;-76
2021/10/22 04:36:42;;;;;;;12.60;4.80;;;5.80;93.30;;;4.32;97.92;97963.47;5033160;28;20447;-75
2021/10/22 04:41:54;;;;;;;11.57;4.93;;;5.70;92.60;;;4.15;97.42;97952.03;5034723;28;20451;-78
2021/10/22 04:44:21;;;;;;;10.60;4.80;;;5.60;93.40;;;4.04;98.61;97955.94;5035222;28;20538;-77
2021/10/22 04:46:49;;;;;;;7.90;5.27;;;5.50;94.20;;;3.96;98.85;97959.47;5046641;28;20478;-75
2021/10/22 04:49:17;;;;;;;10.30;5.07;;;5.40;94.10;;;3.83;98.80;97964.53;5038330;28;20526;-77
2021/10/22 04:51:44;;;;;;;11.07;4.90;;;5.30;94.10;;;3.80;98.98;97959.56;5032986;28;20470;-76
2021/10/22 04:54:11;;;;;;;9.10;4.80;;;5.20;94.60;;;3.70;98.74;97959.75;5034544;28;20443;-77
2021/10/22 04:56:38;;;;;;;10.80;6.00;;;5.10;94.60;;;3.61;99.52;97969.66;5036617;28;20505;-76
2021/10/22 04:59:05;;;;;;;10.80;5.80;;;5.00;96.10;;;3.57;100.00;97970.16;5034875;28;20470;-76
2021/10/22 05:01:32;;;;;;;10.70;6.13;;;4.90;96.10;;;3.44;99.27;97965.34;5034922;28;20447;-76
2021/10/22 05:04:00;;;;;;;15.20;6.13;;;4.90;95.30;;;3.21;100.00;97960.72;5036804;28;20474;-74
2021/10/22 05:06:27;;;;;;;14.17;6.27;;;4.80;95.70;;;3.39;99.79;97965.88;5035255;28;20455;-75
2021/10/22 05:08:54;;;;;;;8.10;5.43;;;4.80;96.50;;;3.38;99.74;97969.53;5034195;28;20528;-75
2021/10/22 05:11:22;;;;;;;14.03;7.67;;;4.70;97.00;;;3.35;100.00;97968.03;5051169;28;20938;-75
2021/10/22 05:13:50;;;;;;;11.20;6.30;;;4.70;96.90;;;3.40;100.00;97959.50;5049975;28;20446;-75
2021/10/22 05:16:17;;;;;;;19.57;7.73;;;4.80;98.90;;;3.46;100.00;97958.00;5036344;28;20534;-75
2021/10/22 05:18:45;;;;;;;15.43;6.53;;;4.80;99.00;;;3.09;100.00;97880.97;5034804;28;20475;-77
2021/10/22 05:21:15;;;;;;;14.43;6.50;;;4.90;97.90;;;3.44;99.80;97966.16;5034038;28;20459;-75
2021/10/22 05:23:42;;;;;;;9.50;6.70;;;4.90;95.80;;;3.52;99.89;97957.31;5036550;28;20473;-75
2021/10/22 05:26:09;;;;;;;11.33;5.97;;;4.80;97.20;;;3.48;98.87;97972.00;5035321;28;20859;-74
2021/10/22 05:28:36;;;;;;;10.40;6.10;;;4.80;95.70;;;3.47;98.90;97954.31;5036439;28;20446;-76
2021/10/22 05:31:03;;;;;;;15.60;6.70;;;4.80;95.60;;;3.38;99.30;97957.00;5036648;28;20450;-75
2021/10/22 05:33:31;;;;;;;12.47;6.70;;;4.80;95.10;;;3.43;98.85;97958.34;5034715;28;20482;-76
2021/10/22 05:35:58;;;;;;;10.60;6.40;;;4.80;95.70;;;3.40;98.98;97952.31;5036116;28;20516;-75
2021/10/22 05:38:28;;;;;;;14.03;7.23;;;4.80;95.50;;;3.50;98.41;97964.66;5036165;28;20476;-76
2021/10/22 05:40:56;;;;;;;11.70;6.60;;;4.80;94.90;;;3.38;98.15;97957.00;5035694;28;20933;-76
2021/10/22 05:43:24;;;;;;;8.57;6.30;;;4.80;94.70;;;3.39;98.76;97969.34;5035726;28;20551;-77
2021/10/22 05:45:51;;;;;;;8.30;6.60;;;4.80;94.90;;;3.23;98.34;97956.88;5036765;28;20442;-77
2021/10/22 05:48:21;;;;;;;10.10;6.60;;;4.70;94.30;;;3.19;98.91;97963.56;5036573;28;20481;-79
2021/10/22 05:50:48;;;;;;;12.67;7.30;;;4.60;95.30;;;3.15;99.44;97956.06;5035405;28;20561;-79
2021/10/22 05:53:15;;;;;;;13.20;6.30;;;4.60;95.50;;;3.19;99.00;97965.41;5035010;28;20541;-75
2021/10/22 05:55:43;;;;;;;9.90;6.57;;;4.60;95.40;;;3.25;99.62;97956.69;5035506;28;20438;-76
2021/10/22 05:58:11;;;;;;;14.43;6.27;;;4.60;96.40;;;3.25;99.25;97968.22;5034148;28;20471;-77
2021/10/22 06:00:41;;;;;;;10.00;6.67;;;4.60;96.20;;;3.32;98.80;97962.19;5034558;28;20457;-76
2021/10/22 06:03:08;;;;;;;11.80;8.53;;;4.70;95.40;;;3.25;99.53;97964.72;5034511;28;20802;-75
2021/10/22 06:05:38;;;;;;;12.40;8.13;;;4.60;95.20;;;3.26;98.80;97969.03;5034966;28;20489;-75
2021/10/22 06:08:07;;;;;;;9.60;6.30;;;4.60;95.00;;;2.96;98.61;97907.38;5032608;28;20854;-76
2021/10/22 06:10:34;;;;;;;16.87;8.30;;;4.70;95.10;;;3.23;98.71;97962.22;5034272;28;20508;-76
2021/10/22 06:13:03;;;;;;;16.33;7.10;;;4.70;94.90;;;3.32;98.34;97970.19;5034921;28;20454;-76
2021/10/22 06:15:30;;;;;;;14.33;7.77;;;4.70;94.70;;;3.24;98.23;97966.56;5037501;28;20500;-77
2021/10/22 06:17:57;;;;;;;14.47;7.73;;;4.70;94.50;;;3.01;98.86;97931.72;5037046;28;21056;-68
2021/10/22 06:20:30;;;;;;;17.90;8.17;;;4.70;94.80;;;3.23;98.40;97986.25;5036433;28;20461;-74
2021/10/22 06:25:44;;;;;;;14.83;8.00;;;4.70;94.60;;;3.32;98.62;97999.56;5037794;28;20462;-74
2021/10/22 06:28:13;;;;;;;15.50;8.50;;;4.70;94.40;;;3.26;98.42;97987.72;5020582;28;20449;-74
2021/10/22 06:30:41;;;;;;;18.97;7.50;;;4.70;94.70;;;3.34;97.61;98001.09;5038761;28;20446;-73
2021/10/22 06:33:08;;;;;;;15.97;7.90;;;4.70;94.00;;;3.31;98.22;98009.44;5037545;28;20852;-74
2021/10/22 06:35:36;;;;;;;16.38;8.63;;;4.70;93.90;;;3.34;97.96;98025.13;5047394;28;20443;-74
2021/10/22 06:38:05;;;;;;;13.90;7.20;;;4.70;93.90;;;3.36;97.59;98032.97;5057255;28;20690;-75
2021/10/22 06:40:32;;;;;;;13.20;8.10;;;4.70;94.20;;;3.29;98.28;98016.78;5058255;28;20472;-73
2021/10/22 06:42:59;;;;;;;18.80;9.23;;;4.80;94.10;;;3.36;97.20;98041.00;5057396;28;20957;-76
2021/10/22 06:45:29;;;;;;;16.30;8.57;;;4.80;93.30;;;3.45;97.84;98047.16;5058069;28;20449;-71
2021/10/22 06:47:56;;;;;;;17.40;10.50;;;4.80;93.90;;;3.39;97.58;98043.31;5057233;28;20466;-72
2021/10/22 06:50:23;;;;;;;15.10;9.20;;;4.80;93.70;;;3.52;97.18;98056.16;5057763;28;20742;-71
2021/10/22 06:52:51;;;;;;;15.87;9.30;;;4.90;93.80;;;3.58;97.44;98066.19;5037841;28;20937;-71
2021/10/22 06:55:18;;;;;;;17.20;8.90;;;4.90;93.80;;;3.63;97.19;98061.16;5037098;28;20443;-73
2021/10/22 06:57:45;;;;;;;17.80;8.57;;;5.00;93.80;;;3.56;96.54;98049.47;5037703;28;20451;-72
2021/10/22 07:00:13;;;;;;;19.13;9.03;;;5.00;92.80;;;3.68;97.06;98074.81;5037654;28;20569;-75
2021/10/22 07:02:49;;;;;;;13.60;8.00;;;5.10;92.80;;;3.79;96.08;98073.66;5037195;28;20446;-73
2021/10/22 07:05:33;;;;;;;17.40;9.23;;;5.20;92.20;;;3.81;95.55;98085.00;5037072;28;20486;-72
2021/10/22 07:08:02;;;;;;;20.60;9.70;;;5.20;91.70;;;3.96;95.59;98082.44;5036991;28;20450;-72
2021/10/22 07:10:30;;;;;;;20.13;9.07;;;5.30;91.80;;;4.02;95.23;98088.09;5036291;28;20454;-73
2021/10/22 07:12:57;;;;;;;13.20;9.73;;;5.40;92.00;;;3.95;94.37;98080.78;5035930;28;20459;-72
2021/10/22 07:15:26;;;;;;;14.93;9.43;;;5.40;90.60;;;4.03;94.48;98076.44;5037729;28;20557;-72
2021/10/22 07:17:56;;;;;;;13.60;8.60;;;5.50;90.90;;;4.13;94.79;98073.56;5037231;28;20529;-73
2021/10/22 07:20:24;;;;;;;15.60;8.80;;;5.60;91.00;;;4.22;92.38;98081.38;5030148;28;20823;-72
2021/10/22 07:22:53;;;;;;;13.87;9.60;;;5.60;89.10;;;4.31;92.55;98089.34;5036974;28;20497;-72
2021/10/22 07:25:23;;;;;;;16.43;9.70;;;5.70;89.20;;;4.35;92.55;98096.88;5036091;28;20458;-72
2021/10/22 07:27:51;;;;;;;14.70;9.27;;;5.70;87.80;;;4.42;92.52;98097.00;5035638;28;20940;-72
2021/10/22 07:30:19;;;;;;;17.80;10.20;;;5.80;89.10;;;4.44;91.79;98097.66;5036192;28;20458;-72
2021/10/22 07:32:47;;;;;;;20.30;9.70;;;5.80;88.10;;;4.43;93.10;98104.03;5036248;28;20486;-72
2021/10/22 07:35:17;;;;;;;16.77;8.50;;;5.80;88.60;;;4.52;91.76;98102.13;5036717;28;20450;-71
2021/10/22 07:37:44;;;;;;;18.30;8.93;;;5.90;87.40;;;4.19;92.49;98059.47;5039256;28;20454;-71
2021/10/22 07:40:12;;;;;;;20.33;8.07;;;5.90;87.60;;;4.57;90.82;98121.19;5039836;28;20528;-71
2021/10/22 07:42:39;;;;;;;15.37;8.17;;;5.90;86.00;;;4.54;90.38;98119.69;5036430;28;20474;-71
2021/10/22 07:45:09;;;;;;;15.97;7.60;;;5.90;85.30;;;4.46;91.79;98124.25;5036530;28;20451;-72
2021/10/22 07:47:37;;;;;;;13.40;8.63;;;5.90;86.50;;;4.56;90.78;98130.25;5036575;28;20446;-71
2021/10/22 07:50:08;;;;;;;14.80;8.50;;;5.90;86.10;;;4.68;89.72;98125.31;5036713;28;20524;-72
2021/10/22 07:52:37;;;;;;;13.30;8.77;;;6.00;85.40;;;4.75;90.10;98123.59;5018475;28;20564;-71
2021/10/22 07:55:05;;;;;;;18.83;9.50;;;6.10;85.10;;;4.68;90.48;98136.03;5034562;28;20442;-71
2021/10/22 07:57:33;;;;;;;19.43;8.47;;;6.00;84.80;;;4.51;89.29;98101.31;5036526;28;20923;-72
2021/10/22 08:00:01;;;;;;;24.80;9.50;;;6.20;84.20;;;4.71;89.89;98137.53;5037084;28;20477;-70
2021/10/22 08:02:28;;;;;;;18.50;9.17;;;6.10;84.50;;;4.90;88.43;98138.91;5034733;28;20438;-72
2021/10/22 08:04:56;;;;;;;15.53;8.47;;;6.20;83.80;;;4.95;88.49;98133.88;5035992;28;20446;-72
2021/10/22 08:07:29;;;;;;;14.33;6.93;;;6.30;83.50;;;4.97;87.29;98126.50;5035238;28;20454;-71
2021/10/22 08:10:00;;;;;;;11.60;7.33;;;6.40;82.40;;;5.10;87.08;98137.47;5035511;28;20431;-71
2021/10/22 08:12:28;;;;;;;21.00;7.93;;;6.40;82.30;;;5.15;86.85;98128.06;5035890;28;20443;-71
2021/10/22 08:14:55;;;;;;;17.90;7.37;;;6.50;82.10;;;5.22;85.87;98129.00;5035751;28;20482;-71
2021/10/22 08:17:24;;;;;;;14.90;7.33;;;6.60;81.20;;;5.34;85.75;98132.94;5035640;28;20473;-71
2021/10/22 08:19:55;;;;;;;19.00;7.53;;;6.60;80.60;;;5.38;85.73;98134.28;5035529;28;20520;-70
2021/10/22 08:22:29;;;;;;;11.40;6.50;;;6.70;80.10;;;5.49;84.26;98135.69;5035247;28;20443;-70
2021/10/22 08:25:01;;;;;;;13.20;6.40;;;6.80;79.40;;;5.33;84.44;98109.84;5033700;28;21000;-71
2021/10/22 08:27:31;;;;;;;15.20;6.83;;;6.90;79.40;;;5.68;83.42;98137.00;5034297;28;20795;-70
2021/10/22 08:29:59;;;;;;;9.97;5.83;;;7.00;78.30;;;5.81;82.89;98138.25;5034823;28;20932;-71
2021/10/22 08:32:27;;;;;;;14.07;6.47;;;7.10;78.00;;;5.92;81.54;98134.31;5033942;28;20464;-71
2021/10/22 08:34:54;;;;;;;14.30;7.07;;;7.20;77.40;;;5.99;81.95;98137.06;5050659;28;20888;-71
2021/10/22 08:37:23;;;;;;;10.43;6.03;;;7.30;77.10;;;6.11;81.57;98138.34;5034692;28;20496;-70
2021/10/22 08:39:50;;;;;;;12.70;6.33;;;7.30;76.80;;;6.30;80.19;98130.78;5034909;28;20472;-70
2021/10/22 08:42:22;;;;;;;17.60;5.60;;;7.50;75.60;;;6.70;78.26;98142.03;5035669;28;20447;-72
2021/10/22 08:44:51;;;;;;;9.90;5.00;;;7.80;74.30;;;6.99;76.95;98134.09;5033765;28;20942;-71
2021/10/22 08:47:22;;;;;;;15.67;5.60;;;8.20;72.80;;;7.15;75.96;98146.47;5033517;28;20454;-71
2021/10/22 08:49:50;;;;;;;9.30;5.10;;;8.40;71.40;;;6.88;76.12;98127.34;5051153;28;20457;-71
2021/10/22 08:52:17;;;;;;;11.07;5.20;;;8.40;71.00;;;7.32;75.27;98134.44;5050140;28;20576;-73
2021/10/22 08:54:44;;;;;;;15.70;7.00;;;8.60;70.90;;;7.32;74.83;98145.19;5034184;28;20469;-72
2021/10/22 08:57:11;;;;;;;14.53;6.60;;;8.70;69.90;;;7.57;74.09;98142.13;5034752;28;20481;-71
2021/10/22 08:59:40;;;;;;;11.50;5.90;;;8.90;69.50;;;7.73;73.19;98129.44;5030262;28;20938;-71
2021/10/22 09:02:12;;;;;;;11.80;5.30;;;9.10;69.00;;;8.03;72.49;98137.31;5032923;28;20899;-72
2021/10/22 09:04:39;;;;;;;9.00;4.90;;;9.10;68.70;;;8.07;71.72;98138.59;5048677;28;20465;-71
2021/10/22 09:07:07;;;;;;;9.87;5.70;;;9.30;67.40;;;8.10;71.88;98140.88;5053558;28;20801;-71
2021/10/22 09:09:35;;;;;;;11.77;4.47;;;9.40;67.50;;;8.25;69.75;98134.56;5054398;28;20438;-72
2021/10/22 09:12:02;;;;;;;11.10;4.80;;;9.50;66.00;;;7.90;71.15;98135.38;5053136;28;20499;-71
2021/10/22 09:14:29;;;;;;;11.30;4.47;;;9.30;65.80;;;7.67;71.48;98130.22;5052821;28;20472;-71
2021/10/22 09:16:58;;;;;;;11.80;4.30;;;9.00;65.70;;;7.65;70.83;98133.09;5053278;28;20714;-72
2021/10/22 09:19:34;;;;;;;9.27;4.40;;;9.00;65.30;;;7.54;71.75;98128.22;5053197;28;20447;-71
2021/10/22 09:22:24;;;;;;;12.63;4.63;;;8.90;65.60;;;7.74;71.91;98123.03;5053915;28;20199;-72
2021/10/22 09:24:54;;;;;;;8.93;4.83;;;9.00;66.00;;;7.83;70.72;98127.25;5054416;28;20437;-71
2021/10/22 09:27:44;;;;;;;8.13;5.03;;;9.10;65.50;;;7.94;70.55;98121.31;5054474;28;20905;-71
2021/10/22 09:30:29;;;;;;;7.37;3.80;;;9.20;65.20;;;8.16;68.61;98123.97;5054643;28;20927;-72
2021/10/22 09:33:00;;;;;;;12.87;3.70;;;9.30;64.00;;;7.75;70.31;98117.47;5054506;28;20533;-72
2021/10/22 09:35:43;;;;;;;6.73;3.47;;;9.20;64.20;;;7.43;69.66;98100.88;5054300;28;20477;-71
2021/10/22 09:38:18;;;;;;;11.93;3.77;;;8.90;63.30;;;6.95;69.11;98080.75;5053224;28;20452;-72
2021/10/22 09:40:49;;;;;;;9.30;4.37;;;8.70;62.70;;;7.01;69.98;98130.19;5052654;28;20492;-72
2021/10/22 09:43:23;;;;;;;10.80;3.20;;;8.40;63.30;;;6.94;70.19;98123.94;5054964;28;20438;-71
2021/10/22 09:45:53;;;;;;;10.90;3.50;;;8.30;63.40;;;7.05;70.52;98112.69;5053359;28;20449;-71
2021/10/22 09:48:28;;;;;;;9.73;3.90;;;8.30;63.60;;;7.16;69.38;98113.19;5052785;28;20438;-71
2021/10/22 09:51:27;;;;;;;7.03;2.93;;;8.40;63.20;;;7.06;69.33;98119.72;5058290;28;20464;-73
2021/10/22 09:53:57;;;;;;;10.23;3.47;;;8.40;62.80;;;7.08;69.49;98109.63;5057657;28;20465;-72
2021/10/22 09:56:26;;;;;;;8.87;2.80;;;8.40;63.10;;;7.16;68.83;98118.56;5058669;28;20457;-71
2021/10/22 09:58:58;;;;;;;7.67;3.40;;;8.40;62.30;;;7.12;68.83;98117.28;5057709;28;20461;-71
2021/10/22 10:01:30;;;;;;;8.83;2.90;;;8.50;62.60;;;6.99;69.07;98126.88;5059170;28;20452;-71
2021/10/22 10:04:00;;;;;;;6.27;3.10;;;8.30;62.00;;;7.19;69.02;98127.09;5057446;28;20437;-71
2021/10/22 10:06:31;;;;;;;4.40;2.70;;;8.40;62.40;;;7.46;67.90;98118.44;5057657;28;20446;-72
2021/10/22 10:08:58;;;;;;;8.20;2.87;;;8.70;62.10;;;7.62;65.80;98123.53;5057875;28;20527;-73
2021/10/22 10:11:27;;;;;;;6.57;2.40;;;8.80;60.30;;;7.62;65.67;98123.53;5058373;28;20441;-72
2021/10/22 10:13:56;;;;;;;10.63;3.47;;;8.90;60.00;;;7.90;65.65;98120.03;5059396;28;20449;-72
2021/10/22 10:16:24;;;;;;;10.97;2.47;;;9.00;60.40;;;8.10;64.61;98113.16;5059264;28;20449;-73
2021/10/22 10:18:57;;;;;;;10.30;2.60;;;9.30;59.80;;;8.18;63.92;98129.13;5058320;28;20442;-72
2021/10/22 10:21:28;;;;;;;4.37;1.60;;;9.40;59.10;;;8.17;60.36;98131.00;5059942;28;20445;-71
2021/10/22 10:23:56;;;;;;;7.00;1.90;;;9.40;56.50;;;8.33;59.88;98123.63;5059599;28;20447;-72
2021/10/22 10:26:27;;;;;;;5.07;2.10;;;9.60;55.90;;;8.21;60.53;98132.25;5060408;28;20449;-74
2021/10/22 10:28:57;;;;;;;6.50;2.20;;;9.50;55.80;;;8.02;61.16;98132.97;5060129;28;20520;-74
2021/10/22 10:31:32;;;;;;;4.60;1.90;;;9.30;56.30;;;7.98;62.34;98120.94;5058156;28;20456;-72
2021/10/22 10:34:01;;;;;;;5.97;2.10;;;9.30;56.80;;;8.05;60.49;98129.88;5058405;28;20441;-71
2021/10/22 10:36:50;;;;;;;3.97;2.13;;;9.30;55.90;;;7.76;59.30;98123.66;5057104;28;20509;-72
2021/10/22 10:39:54;;;;;;;6.13;1.90;;;9.10;54.40;;;7.88;60.98;98127.50;5058662;28;20811;-72